Terminal Aerodrome Forecast
Issued by NWS Miami, FL

Home | Current Version | Previous Version | Text Only | Print | Product List | Glossary On
Versions: 1 2 3 4 5 6 7 8 9 10 11 12 13 14 15 16 17 18 19 20 21 22 23 24 25 26 27 28 29
000
FTUS42 KMFL 302322
TAFFLL
TAF
KFLL 302322Z 3100/3124 15010G15KT P6SM VCSH SCT020 BKN050 BKN250
     FM310200 13010KT P6SM VCSH SCT020 BKN050
     FM311400 19015G25KT P6SM VCTS SCT030CB=

USA.gov is the U.S. government's official web portal to all federal, state and local government web resources and services.